Time;durP1;ratioP1;P1;durP2;ratioP2;P2;SDS_P1;SDS_P2;PMS_P1;PMS_P2;Temp;Humidity;BMP_temperature;BMP_pressure;BME280_temperature;BME280_humidity;BME280_pressure;Samples;Min_cycle;Max_cycle;Signal;HPM_P1;HPM_P2
2021/08/30 17:34:38;;;;;;;;;;;24.00;84.10;;;;;;5060674;27;19921;-90
2021/08/30 17:37:04;;;;;;;;;;;23.70;87.00;;;;;;5067980;28;20301;-90
2021/08/30 17:39:30;;;;;;;;;;;23.70;90.00;;;;;;5050949;28;19980;-88
2021/08/30 17:41:55;;;;;;;;;;;23.70;91.20;;;;;;5047567;28;20413;-90
2021/08/30 17:44:21;;;;;;;;;;;23.60;92.10;;;;;;5052330;28;19917;-91
2021/08/30 17:46:46;;;;;;;;;;;23.60;92.70;;;;;;5046011;28;19967;-90
2021/08/30 17:49:12;;;;;;;;;;;23.60;93.30;;;;;;5044114;28;20366;-91
2021/08/30 17:51:40;;;;;;;;;;;23.60;93.90;;;;;;5037134;28;19917;-91
2021/08/30 17:54:06;;;;;;;;;;;23.50;94.30;;;;;;5031318;28;19953;-91
2021/08/30 17:56:32;;;;;;;;;;;23.50;94.70;;;;;;5040443;28;20323;-92
2021/08/30 17:58:58;;;;;;;;;;;23.40;95.20;;;;;;5040251;28;19916;-92
2021/08/30 18:01:25;;;;;;;;;;;23.40;95.10;;;;;;5029960;28;19910;-91
2021/08/30 18:03:51;;;;;;;;;;;23.40;95.30;;;;;;5048458;28;20276;-91
2021/08/30 18:06:17;;;;;;;;;;;23.40;95.60;;;;;;5053090;28;19996;-91
2021/08/30 18:08:42;;;;;;;;;;;23.30;95.60;;;;;;5066344;28;19913;-92
2021/08/30 18:11:08;;;;;;;;;;;23.30;95.80;;;;;;5069375;28;19917;-92
2021/08/30 18:13:33;;;;;;;;;;;23.30;95.90;;;;;;5068830;28;19913;-93
2021/08/30 18:15:59;;;;;;;;;;;23.30;95.90;;;;;;5047646;28;19921;-92
2021/08/30 18:18:25;;;;;;;;;;;23.20;96.10;;;;;;5061157;28;19966;-91
2021/08/30 18:20:51;;;;;;;;;;;23.20;96.20;;;;;;5052302;28;19909;-91
2021/08/30 18:23:16;;;;;;;;;;;23.10;96.40;;;;;;5048412;28;19909;-91
2021/08/30 18:25:42;;;;;;;;;;;23.10;96.40;;;;;;5048715;28;19916;-90
2021/08/30 18:28:10;;;;;;;;;;;23.10;96.50;;;;;;5050011;28;19970;-93
2021/08/30 18:30:36;;;;;;;;;;;23.10;96.50;;;;;;5049088;28;19909;-90
2021/08/30 18:33:02;;;;;;;;;;;23.00;96.40;;;;;;5054371;28;19931;-91
2021/08/30 18:35:27;;;;;;;;;;;23.00;96.30;;;;;;5043984;28;20932;-91
2021/08/30 18:37:53;;;;;;;;;;;23.10;96.30;;;;;;5057710;28;20388;-91
2021/08/30 18:40:20;;;;;;;;;;;23.00;96.20;;;;;;5043541;28;19971;-91
2021/08/30 18:42:45;;;;;;;;;;;23.00;96.20;;;;;;5049081;28;19913;-91
2021/08/30 18:56:24;;;;;;;;;;;22.50;94.10;;;;;;5121544;27;19916;-90
2021/08/30 18:58:49;;;;;;;;;;;22.40;95.20;;;;;;5119569;28;19919;-90
2021/08/30 19:01:15;;;;;;;;;;;22.30;95.90;;;;;;5122817;28;19960;-89
2021/08/30 19:03:40;;;;;;;;;;;22.30;96.40;;;;;;5119674;28;19908;-90
2021/08/30 19:06:06;;;;;;;;;;;22.30;96.60;;;;;;5121855;28;19954;-90
2021/08/30 19:08:34;;;;;;;;;;;22.30;96.90;;;;;;5120961;28;20345;-90
2021/08/30 19:10:59;;;;;;;;;;;22.30;97.00;;;;;;5115681;28;20339;-91
2021/08/30 19:13:27;;;;;;;;;;;22.30;97.10;;;;;;5112335;28;19951;-93
2021/08/30 19:15:53;;;;;;;;;;;22.20;97.30;;;;;;5098678;28;19951;-91
2021/08/30 20:05:05;;;;;;;;;;;20.80;95.00;;;;;;5112670;27;19912;-93
2021/08/30 20:07:30;;;;;;;;;;;20.70;96.50;;;;;;5106985;28;19913;-90
2021/08/30 20:16:47;;;;;;;;;;;20.70;96.50;;;;;;5112263;27;19912;-90
2021/08/30 22:19:38;;;;;;;;;;;19.70;97.30;;;;;;5091209;27;19917;-90
2021/08/30 22:22:04;;;;;;;;;;;19.60;98.80;;;;;;5112748;28;20004;-90
2021/08/30 22:24:30;;;;;;;;;;;19.70;99.70;;;;;;5080571;28;20007;-89
2021/08/30 22:26:55;;;;;;;;;;;19.80;99.90;;;;;;5081133;28;19913;-90
2021/08/30 22:29:25;;;;;;;;;;;19.80;99.90;;;;;;5080493;28;20334;-91
2021/08/30 22:31:51;;;;;;;;;;;20.00;99.90;;;;;;5079395;28;19991;-90
2021/08/30 22:34:17;;;;;;;;;;;20.10;99.90;;;;;;5078593;28;19955;-90
2021/08/30 22:36:42;;;;;;;;;;;20.20;99.90;;;;;;5081697;28;19915;-90
2021/08/30 22:39:09;;;;;;;;;;;20.20;99.90;;;;;;5079050;28;20322;-91
2021/08/30 22:41:36;;;;;;;;;;;20.30;99.90;;;;;;5079115;28;19913;-92
2021/08/30 22:44:06;;;;;;;;;;;20.40;99.90;;;;;;5083128;28;19909;-91
2021/08/30 22:46:32;;;;;;;;;;;20.50;99.90;;;;;;5079790;28;19956;-90
2021/08/30 22:48:57;;;;;;;;;;;20.40;99.90;;;;;;5081609;28;19994;-90
2021/08/30 23:43:24;;;;;;;;;;;19.60;98.40;;;;;;5112972;27;19919;-91
